Time;durP1;ratioP1;P1;durP2;ratioP2;P2;SDS_P1;SDS_P2;PMS_P1;PMS_P2;Temp;Humidity;BMP_temperature;BMP_pressure;BME280_temperature;BME280_humidity;BME280_pressure;Samples;Min_cycle;Max_cycle;Signal;HPM_P1;HPM_P2
2021/03/21 00:01:07;;;;;;;9.60;3.67;;;6.50;99.90;;;;;;5053444;28;20068;-62
2021/03/21 00:03:54;;;;;;;8.82;3.30;;;6.60;99.90;;;;;;5069214;28;20459;-62
2021/03/21 00:06:35;;;;;;;10.70;4.07;;;6.50;99.90;;;;;;5068855;28;20039;-62
2021/03/21 00:13:32;;;;;;;11.80;4.18;;;6.50;99.90;;;;;;5072627;28;20545;-63
2021/03/21 00:16:03;;;;;;;13.18;4.10;;;6.50;99.90;;;;;;5073253;28;20043;-62
2021/03/21 00:18:36;;;;;;;10.00;3.72;;;6.50;99.90;;;;;;5067136;28;20048;-62
2021/03/21 00:29:03;;;;;;;9.68;4.05;;;6.50;99.90;;;;;;5072495;28;20063;-62
2021/03/21 00:31:42;;;;;;;14.07;4.95;;;6.50;99.90;;;;;;5075915;28;20049;-62
2021/03/21 00:34:26;;;;;;;12.88;4.82;;;6.50;99.90;;;;;;5067920;28;20045;-62
2021/03/21 00:41:01;;;;;;;11.98;5.43;;;6.50;99.90;;;;;;5070101;28;20040;-62
2021/03/21 00:43:36;;;;;;;14.52;6.20;;;6.50;99.90;;;;;;5056766;28;20053;-62
2021/03/21 00:46:09;;;;;;;19.10;6.85;;;6.50;99.90;;;;;;5075811;28;20076;-62
2021/03/21 00:48:38;;;;;;;17.23;6.93;;;6.50;99.90;;;;;;5058671;28;20045;-62
2021/03/21 00:51:05;;;;;;;21.17;7.47;;;6.50;99.90;;;;;;5075938;28;20119;-61
2021/03/21 00:53:56;;;;;;;24.15;7.78;;;6.50;99.90;;;;;;5050900;28;20044;-61
2021/03/21 00:56:51;;;;;;;14.77;7.65;;;6.50;99.90;;;;;;5038434;28;20072;-62
2021/03/21 01:03:20;;;;;;;17.10;7.63;;;6.50;99.90;;;;;;5051357;28;20526;-62
2021/03/21 01:06:06;;;;;;;14.85;6.28;;;6.50;99.90;;;;;;5054738;28;20060;-62
2021/03/21 01:08:37;;;;;;;22.15;7.28;;;6.50;99.90;;;;;;5056334;28;20118;-62
2021/03/21 01:18:37;;;;;;;12.10;5.35;;;6.40;99.90;;;;;;5055449;28;20040;-63
2021/03/21 01:21:10;;;;;;;20.70;5.40;;;6.40;99.90;;;;;;5051776;28;20049;-62
2021/03/21 01:31:10;;;;;;;7.13;3.80;;;6.30;99.90;;;;;;5055259;28;20072;-62
2021/03/21 01:33:55;;;;;;;8.27;3.72;;;6.30;99.90;;;;;;5050311;28;20045;-62
2021/03/21 01:36:36;;;;;;;10.02;3.60;;;6.30;99.90;;;;;;5037318;28;20046;-62
2021/03/21 01:43:33;;;;;;;9.07;3.33;;;6.30;99.90;;;;;;5053897;28;20039;-62
2021/03/21 01:46:08;;;;;;;15.88;3.40;;;6.30;99.90;;;;;;5035921;28;20054;-62
2021/03/21 01:56:11;;;;;;;11.25;4.13;;;6.20;99.90;;;;;;5054889;28;20124;-62
2021/03/21 01:58:43;;;;;;;19.65;5.20;;;6.20;99.90;;;;;;5055778;28;20037;-62
2021/03/21 02:01:16;;;;;;;14.50;4.55;;;6.20;99.90;;;;;;5049434;28;20484;-62
2021/03/21 02:03:58;;;;;;;;;;;6.20;99.90;;;;;;5055986;28;20109;-62
2021/03/21 02:07:00;;;;;;;10.63;3.72;;;6.20;99.90;;;;;;5054687;28;20011;-62
2021/03/21 02:13:44;;;;;;;12.95;4.45;;;6.30;99.90;;;;;;5054600;28;20048;-62
2021/03/21 02:16:20;;;;;;;13.10;4.03;;;6.30;99.90;;;;;;5054622;28;20116;-62
2021/03/21 02:19:30;;;;;;;14.90;3.78;;;6.30;99.90;;;;;;5054463;28;20033;-62
2021/03/21 02:26:48;;;;;;;12.05;3.65;;;6.30;99.90;;;;;;5054091;28;20035;-62
2021/03/21 02:29:23;;;;;;;10.10;2.65;;;6.30;99.90;;;;;;5039411;28;20047;-62
2021/03/21 02:32:07;;;;;;;10.63;3.67;;;6.30;99.90;;;;;;5052340;28;20036;-62
2021/03/21 02:38:58;;;;;;;12.07;3.33;;;6.30;99.90;;;;;;5053993;28;20036;-62
2021/03/21 02:41:51;;;;;;;15.52;4.15;;;6.40;99.90;;;;;;5008285;28;20057;-62
2021/03/21 02:44:39;;;;;;;12.27;3.10;;;6.40;99.90;;;;;;5048867;28;20033;-62
2021/03/21 02:51:23;;;;;;;12.77;3.15;;;6.40;99.90;;;;;;5053616;28;20503;-62
2021/03/21 02:53:59;;;;;;;5.25;2.10;;;6.40;99.90;;;;;;5068899;28;20133;-62
2021/03/21 02:56:29;;;;;;;17.00;3.03;;;6.40;99.90;;;;;;5056009;28;20052;-62
2021/03/21 02:59:26;;;;;;;12.27;2.58;;;6.40;99.90;;;;;;5073552;28;20052;-62
2021/03/21 03:02:04;;;;;;;15.05;3.20;;;6.30;99.90;;;;;;5053061;28;20084;-62
2021/03/21 03:08:48;;;;;;;7.53;1.58;;;6.30;99.90;;;;;;5073274;28;20129;-62
2021/03/21 03:11:30;;;;;;;11.70;2.67;;;6.30;99.90;;;;;;5068646;28;20068;-62
2021/03/21 03:21:24;;;;;;;21.20;4.55;;;6.30;99.90;;;;;;5053631;28;20486;-63
2021/03/21 03:24:21;;;;;;;7.60;2.00;;;6.30;99.90;;;;;;5055566;28;20040;-63
2021/03/21 03:31:19;;;;;;;11.90;2.25;;;6.30;99.90;;;;;;5073223;28;20043;-63
2021/03/21 03:52:41;;;;;;;19.98;3.25;;;6.30;99.90;;;;;;5051818;28;20059;-62
2021/03/21 03:59:06;;;;;;;13.85;2.47;;;6.30;99.90;;;;;;5052886;28;20136;-63
2021/03/21 04:01:56;;;;;;;17.17;2.95;;;6.30;99.90;;;;;;5048809;28;20412;-63
2021/03/21 04:09:00;;;;;;;16.75;2.10;;;6.30;99.90;;;;;;5057018;28;20032;-62
2021/03/21 04:11:53;;;;;;;13.93;2.10;;;6.30;99.90;;;;;;5037122;28;20045;-63
2021/03/21 04:14:36;;;;;;;7.95;1.65;;;6.30;99.90;;;;;;5039194;28;20445;-63
2021/03/21 04:21:36;;;;;;;8.68;1.90;;;6.30;99.90;;;;;;5056418;28;20040;-63
2021/03/21 04:24:37;;;;;;;7.70;1.33;;;6.30;99.90;;;;;;5056077;28;20041;-63
2021/03/21 04:27:30;;;;;;;12.95;2.28;;;6.30;99.90;;;;;;5057010;28;20553;-63
2021/03/21 04:33:59;;;;;;;10.20;1.75;;;6.20;99.90;;;;;;5056245;28;20083;-63
2021/03/21 04:36:44;;;;;;;11.57;1.65;;;6.20;99.90;;;;;;5035767;28;20059;-63
2021/03/21 04:46:45;;;;;;;15.85;2.15;;;6.20;99.90;;;;;;5054608;28;20063;-63
2021/03/21 04:49:16;;;;;;;36.53;4.22;;;6.20;99.90;;;;;;5056458;28;20052;-63
2021/03/21 04:51:45;;;;;;;13.18;1.83;;;6.20;99.90;;;;;;5056228;28;20076;-63
2021/03/21 04:54:24;;;;;;;22.58;2.65;;;6.30;99.90;;;;;;5073644;28;20067;-63
2021/03/21 04:57:25;;;;;;;12.32;2.35;;;6.30;99.90;;;;;;5057165;28;20051;-63
2021/03/21 04:59:57;;;;;;;10.73;1.30;;;6.30;99.90;;;;;;5076443;28;20046;-63
2021/03/21 05:09:47;;;;;;;15.52;3.05;;;6.30;99.90;;;;;;5073276;28;20044;-61
2021/03/21 05:12:37;;;;;;;18.67;2.47;;;6.30;99.90;;;;;;5060694;28;20090;-62
2021/03/21 05:15:26;;;;;;;14.57;2.13;;;6.30;99.90;;;;;;5063198;28;20041;-62
2021/03/21 05:22:19;;;;;;;22.45;2.85;;;6.30;99.90;;;;;;5056672;28;20558;-62
2021/03/21 05:25:19;;;;;;;17.90;2.40;;;6.20;99.90;;;;;;5060258;28;20079;-62
2021/03/21 05:31:45;;;;;;;17.58;2.53;;;6.20;99.90;;;;;;5069503;28;20101;-62
2021/03/21 05:34:17;;;;;;;21.40;4.15;;;6.20;99.90;;;;;;5070014;28;20040;-62
2021/03/21 05:44:25;;;;;;;22.23;3.17;;;6.10;99.90;;;;;;5075484;28;20031;-61
2021/03/21 05:54:46;;;;;;;25.50;3.28;;;6.10;99.90;;;;;;5054473;28;20090;-61
2021/03/21 06:01:46;;;;;;;30.55;3.53;;;6.00;99.90;;;;;;5074633;28;20035;-62
2021/03/21 06:04:51;;;;;;;25.05;3.10;;;6.00;99.90;;;;;;5061871;28;20408;-62
2021/03/21 06:11:46;;;;;;;23.33;3.22;;;6.00;99.90;;;;;;5073822;28;20438;-62
2021/03/21 06:14:35;;;;;;;;;;;6.00;99.90;;;;;;5069534;28;20047;-62
2021/03/21 06:17:45;;;;;;;32.45;4.45;;;6.00;99.90;;;;;;5071328;28;20272;-62
2021/03/21 06:24:36;;;;;;;24.27;3.75;;;6.00;99.90;;;;;;5074275;28;20102;-62
2021/03/21 06:27:39;;;;;;;33.70;4.22;;;6.00;99.90;;;;;;5073902;28;20044;-62
2021/03/21 06:34:04;;;;;;;26.70;4.38;;;5.90;99.90;;;;;;5074007;28;20031;-62
2021/03/21 06:40:39;;;;;;;30.90;3.97;;;5.80;99.90;;;;;;5073226;28;20031;-62
2021/03/21 06:47:33;;;;;;;25.60;3.53;;;5.80;99.90;;;;;;5070052;28;20047;-62
2021/03/21 06:54:10;;;;;;;25.50;4.50;;;5.90;99.90;;;;;;5073332;28;20059;-62
2021/03/21 06:57:04;;;;;;;31.35;3.92;;;5.90;99.90;;;;;;5043121;28;20056;-62
2021/03/21 07:14:55;;;;;;;30.13;4.50;;;6.00;99.90;;;;;;5073448;28;20097;-62
2021/03/21 07:21:54;;;;;;;24.30;3.90;;;6.10;99.90;;;;;;5066994;28;20067;-61
2021/03/21 07:24:35;;;;;;;31.92;4.95;;;6.10;99.90;;;;;;5066774;28;20116;-62
2021/03/21 07:35:00;;;;;;;26.63;4.15;;;6.20;99.90;;;;;;5073144;28;20575;-62
2021/03/21 07:41:53;;;;;;;31.05;4.63;;;6.20;99.90;;;;;;5072993;28;20036;-61
2021/03/21 07:44:46;;;;;;;35.90;6.13;;;6.20;99.90;;;;;;5066562;28;20040;-62
2021/03/21 07:54:47;;;;;;;33.22;3.72;;;6.30;99.90;;;;;;5069272;28;20109;-62
2021/03/21 07:57:41;;;;;;;26.65;3.83;;;6.30;99.90;;;;;;5055742;28;20473;-62
2021/03/21 08:04:24;;;;;;;36.58;5.40;;;6.40;99.90;;;;;;5072776;28;20105;-62
2021/03/21 08:14:31;;;;;;;29.63;4.55;;;6.50;99.90;;;;;;5070942;28;20036;-62
2021/03/21 08:17:04;;;;;;;22.95;3.58;;;6.50;99.90;;;;;;5062466;28;20543;-61
2021/03/21 08:19:36;;;;;;;37.05;4.13;;;6.50;99.90;;;;;;5072768;28;20041;-62
2021/03/21 08:22:13;;;;;;;27.10;4.20;;;6.60;99.90;;;;;;5072610;28;20040;-62
2021/03/21 08:25:16;;;;;;;37.88;4.32;;;6.50;99.90;;;;;;5072516;28;20416;-62
2021/03/21 08:27:42;;;;;;;31.75;5.07;;;6.60;99.90;;;;;;5073078;28;20044;-62
2021/03/21 08:34:31;;;;;;;29.92;5.28;;;6.60;99.90;;;;;;5072577;28;20572;-62
2021/03/21 08:37:32;;;;;;;23.92;3.90;;;6.60;99.90;;;;;;5071620;28;20507;-62
2021/03/21 08:47:43;;;;;;;23.70;3.92;;;6.70;99.90;;;;;;4991343;28;20060;-62
2021/03/21 08:50:38;;;;;;;25.83;4.80;;;6.70;99.90;;;;;;5007147;28;20572;-62
2021/03/21 08:53:05;;;;;;;25.27;4.60;;;6.80;99.90;;;;;;5075323;28;20049;-63
2021/03/21 08:59:45;;;;;;;21.98;3.97;;;6.80;99.90;;;;;;5075997;28;20032;-62
2021/03/21 09:02:19;;;;;;;29.75;4.35;;;6.80;99.90;;;;;;5056597;28;20400;-63
2021/03/21 09:05:06;;;;;;;34.88;4.00;;;6.90;99.90;;;;;;5072036;28;20044;-62
2021/03/21 09:08:07;;;;;;;21.08;4.22;;;6.90;99.90;;;;;;5076513;28;20040;-62
2021/03/21 09:10:49;;;;;;;27.85;3.60;;;6.90;99.90;;;;;;5019431;28;20049;-63
2021/03/21 09:13:35;;;;;;;29.63;4.57;;;7.00;99.90;;;;;;5064410;28;20033;-62
2021/03/21 09:19:47;;;;;;;26.73;3.97;;;7.20;99.90;;;;;;5055855;28;20032;-62
2021/03/21 09:22:28;;;;;;;36.00;4.85;;;7.20;99.90;;;;;;5055984;28;20072;-62
2021/03/21 09:25:38;;;;;;;21.88;4.32;;;7.20;99.90;;;;;;5057018;28;20046;-62
2021/03/21 09:39:45;;;;;;;38.05;4.68;;;7.10;99.90;;;;;;5075288;28;20063;-66
2021/03/21 09:42:18;;;;;;;27.85;4.65;;;7.00;99.90;;;;;;5075453;28;20496;-64
2021/03/21 09:44:47;;;;;;;29.25;4.97;;;7.10;99.90;;;;;;5075575;28;20408;-64
2021/03/21 09:47:41;;;;;;;31.50;4.93;;;7.00;99.90;;;;;;5075209;28;20067;-66
2021/03/21 09:50:24;;;;;;;32.35;5.88;;;7.00;99.90;;;;;;5058028;28;20113;-64
2021/03/21 09:53:11;;;;;;;35.05;5.30;;;7.00;99.90;;;;;;5075095;28;20044;-68
2021/03/21 09:56:05;;;;;;;40.45;5.25;;;7.10;99.90;;;;;;5057444;28;20111;-66
2021/03/21 09:59:11;;;;;;;24.50;3.13;;;7.10;99.90;;;;;;5075178;28;20051;-69
2021/03/21 10:02:15;;;;;;;29.33;5.13;;;7.10;99.90;;;;;;5074817;28;20055;-65
2021/03/21 10:04:47;;;;;;;24.08;3.85;;;7.10;99.90;;;;;;5065243;28;20145;-65
2021/03/21 10:07:59;;;;;;;26.95;4.32;;;7.10;99.90;;;;;;5074696;28;20048;-65
2021/03/21 10:11:04;;;;;;;32.83;4.88;;;7.10;99.90;;;;;;5052780;28;20528;-64
2021/03/21 10:13:55;;;;;;;42.15;5.15;;;7.20;99.90;;;;;;5074681;28;20040;-66
2021/03/21 10:16:48;;;;;;;19.38;4.10;;;7.20;99.90;;;;;;5065431;28;20040;-68
2021/03/21 10:23:04;;;;;;;20.60;3.65;;;7.00;99.90;;;;;;5073256;28;20048;-64
2021/03/21 10:26:04;;;;;;;56.75;9.90;;;7.20;99.90;;;;;;5068603;28;20047;-64
2021/03/21 10:33:04;;;;;;;54.67;12.45;;;7.30;99.90;;;;;;5074027;28;20106;-65
2021/03/21 10:35:41;;;;;;;33.88;5.05;;;7.30;99.90;;;;;;5074374;28;20075;-64
2021/03/21 10:38:49;;;;;;;28.45;5.63;;;7.30;99.90;;;;;;5073402;28;20040;-65
2021/03/21 10:45:34;;;;;;;34.65;5.40;;;7.20;99.90;;;;;;5063164;28;20115;-64
2021/03/21 10:48:18;;;;;;;34.08;4.65;;;7.30;99.90;;;;;;5074294;28;20456;-63
2021/03/21 10:51:07;;;;;;;29.30;4.85;;;7.30;99.90;;;;;;5073918;28;20036;-65
2021/03/21 10:53:33;;;;;;;21.45;4.00;;;7.30;99.90;;;;;;5071120;28;20075;-65
2021/03/21 10:56:22;;;;;;;29.83;5.47;;;7.40;99.90;;;;;;5073722;28;20479;-65
2021/03/21 11:03:16;;;;;;;21.80;4.03;;;7.40;99.90;;;;;;5058802;28;20051;-64
2021/03/21 11:13:09;;;;;;;27.63;4.63;;;7.30;99.90;;;;;;5071431;28;20483;-64
2021/03/21 11:16:07;;;;;;;21.77;4.25;;;7.50;99.90;;;;;;5073171;28;20503;-64
2021/03/21 11:19:12;;;;;;;26.73;5.13;;;7.50;99.90;;;;;;5053254;28;20068;-64
2021/03/21 11:21:39;;;;;;;29.58;5.75;;;7.50;99.90;;;;;;5060397;28;20048;-64
2021/03/21 11:24:28;;;;;;;34.28;5.10;;;7.50;99.90;;;;;;5073239;28;20040;-64
2021/03/21 11:30:57;;;;;;;30.35;4.72;;;7.50;99.90;;;;;;5072880;28;20036;-64
2021/03/21 11:33:43;;;;;;;30.05;5.50;;;7.50;99.90;;;;;;5067847;28;20045;-65
2021/03/21 11:36:18;;;;;;;29.58;5.00;;;7.50;99.90;;;;;;5066235;28;20041;-64
2021/03/21 11:39:18;;;;;;;23.95;4.30;;;7.50;99.90;;;;;;5073270;28;20495;-64
2021/03/21 11:41:46;;;;;;;26.33;5.22;;;7.60;99.90;;;;;;5073139;28;20048;-65
2021/03/21 11:44:32;;;;;;;30.98;5.22;;;7.70;99.90;;;;;;5073063;28;20040;-65
2021/03/21 11:51:06;;;;;;;23.27;4.38;;;7.60;99.90;;;;;;5070401;28;20403;-66
2021/03/21 11:53:40;;;;;;;35.83;4.75;;;7.60;99.90;;;;;;5052418;28;20412;-65
2021/03/21 11:57:01;;;;;;;25.50;3.92;;;7.70;99.90;;;;;;5053005;28;20127;-65
2021/03/21 12:11:17;;;;;;;22.30;2.97;;;8.00;99.90;;;;;;5073054;28;20051;-64
2021/03/21 12:13:46;;;;;;;17.95;3.05;;;7.90;99.90;;;;;;5069971;28;20043;-65
2021/03/21 12:16:44;;;;;;;31.83;4.72;;;7.90;99.90;;;;;;5073047;28;20406;-65
2021/03/21 12:19:28;;;;;;;19.00;3.22;;;7.90;99.90;;;;;;5064207;28;20495;-64
2021/03/21 12:22:21;;;;;;;14.88;3.20;;;7.90;99.90;;;;;;5071499;28;20120;-65
2021/03/21 12:25:46;;;;;;;25.50;3.88;;;8.00;99.90;;;;;;5072684;28;20045;-64
2021/03/21 12:28:50;;;;;;;21.25;4.15;;;8.00;99.90;;;;;;5056021;28;20102;-64
2021/03/21 12:31:32;;;;;;;25.67;4.20;;;7.90;99.90;;;;;;5056933;28;20056;-63
2021/03/21 12:38:01;;;;;;;23.98;5.15;;;7.80;99.90;;;;;;5076295;28;20063;-66
2021/03/21 12:40:43;;;;;;;30.38;4.47;;;7.80;99.90;;;;;;5070401;28;20053;-65
2021/03/21 12:43:34;;;;;;;20.83;3.80;;;7.80;99.90;;;;;;5076245;28;20044;-65
2021/03/21 12:46:10;;;;;;;28.65;4.85;;;7.70;99.90;;;;;;5075623;28;20040;-65
2021/03/21 12:52:58;;;;;;;27.45;4.78;;;7.60;99.90;;;;;;5070584;28;20052;-65
2021/03/21 12:55:36;;;;;;;25.67;3.47;;;7.60;99.90;;;;;;5071328;28;20514;-65
2021/03/21 12:58:34;;;;;;;25.23;3.80;;;7.50;99.90;;;;;;5072346;28;20548;-66
2021/03/21 13:05:31;;;;;;;31.45;4.10;;;7.50;99.90;;;;;;5070019;28;20040;-66
2021/03/21 13:08:05;;;;;;;23.45;4.20;;;7.50;99.90;;;;;;5058193;28;20381;-66
2021/03/21 13:10:39;;;;;;;17.30;3.15;;;7.50;99.90;;;;;;5075482;28;20486;-65
2021/03/21 13:13:08;;;;;;;22.92;3.92;;;7.50;99.90;;;;;;5058050;28;20040;-65
2021/03/21 13:15:43;;;;;;;21.98;4.18;;;7.60;99.90;;;;;;5076071;28;20037;-65
2021/03/21 13:18:17;;;;;;;16.35;3.35;;;7.50;99.90;;;;;;5075808;28;20036;-65
2021/03/21 13:21:07;;;;;;;21.05;3.28;;;7.60;99.90;;;;;;5057912;28;20123;-65
2021/03/21 13:23:45;;;;;;;33.67;4.55;;;7.60;99.90;;;;;;5024900;28;20049;-65
2021/03/21 13:26:15;;;;;;;17.73;3.60;;;7.60;99.90;;;;;;5066442;28;20044;-65
2021/03/21 13:29:04;;;;;;;31.30;5.05;;;7.60;99.90;;;;;;5075527;28;20113;-65
2021/03/21 13:35:11;;;;;;;22.65;3.67;;;7.50;99.90;;;;;;5074695;28;20093;-65
2021/03/21 13:37:50;;;;;;;29.80;4.38;;;7.50;99.90;;;;;;5057411;28;20056;-66
2021/03/21 13:40:29;;;;;;;23.70;4.05;;;7.50;99.90;;;;;;5055521;28;20033;-65
2021/03/21 13:43:15;;;;;;;27.38;3.38;;;7.50;99.90;;;;;;5073134;28;20040;-65
2021/03/21 13:45:43;;;;;;;30.75;4.72;;;7.50;99.90;;;;;;5075836;28;20037;-64
2021/03/21 13:48:15;;;;;;;21.15;4.47;;;7.50;99.90;;;;;;5075233;28;20115;-65
2021/03/21 13:50:44;;;;;;;24.63;3.78;;;7.60;99.90;;;;;;5075181;28;20052;-66
2021/03/21 13:53:19;;;;;;;30.63;4.53;;;7.60;99.90;;;;;;5062959;28;20047;-65
2021/03/21 13:55:47;;;;;;;21.83;3.25;;;7.60;99.90;;;;;;5072877;28;20075;-64
2021/03/21 13:58:15;;;;;;;20.73;3.50;;;7.50;99.90;;;;;;5074916;28;20395;-64
2021/03/21 14:01:13;;;;;;;32.78;4.55;;;7.60;99.90;;;;;;5074934;28;20128;-63
2021/03/21 14:03:44;;;;;;;24.02;3.50;;;7.50;99.90;;;;;;5059550;28;20048;-64
2021/03/21 14:06:23;;;;;;;21.98;3.75;;;7.50;99.90;;;;;;5074803;28;20037;-64
2021/03/21 14:08:54;;;;;;;37.30;4.93;;;7.60;99.90;;;;;;5074607;28;20098;-64
2021/03/21 14:11:26;;;;;;;31.42;4.25;;;7.60;99.90;;;;;;5069487;28;20200;-64
2021/03/21 14:13:53;;;;;;;29.33;5.28;;;7.60;99.90;;;;;;5075429;28;20045;-64
2021/03/21 14:23:47;;;;;;;23.52;4.25;;;7.50;99.90;;;;;;5058186;28;20495;-64
2021/03/21 14:26:19;;;;;;;18.83;3.95;;;7.40;99.90;;;;;;5074368;28;20041;-63
2021/03/21 14:33:16;;;;;;;18.77;3.83;;;7.40;99.90;;;;;;5074157;28;20098;-62
2021/03/21 14:35:49;;;;;;;22.73;3.78;;;7.40;99.90;;;;;;5074171;28;20075;-64
2021/03/21 14:38:21;;;;;;;30.83;3.75;;;7.50;99.90;;;;;;5074491;28;20044;-63
2021/03/21 14:40:49;;;;;;;21.23;2.85;;;7.50;99.90;;;;;;5073906;28;20053;-65
2021/03/21 14:43:23;;;;;;;20.80;3.35;;;7.50;99.90;;;;;;5073913;28;20391;-62
2021/03/21 14:45:55;;;;;;;;;;;7.50;99.90;;;;;;5069870;28;20045;-66
2021/03/21 14:48:32;;;;;;;16.35;2.80;;;7.40;99.90;;;;;;5044605;28;19943;-65
2021/03/21 14:54:39;;;;;;;31.75;3.38;;;7.40;99.90;;;;;;5071644;28;20522;-68
2021/03/21 15:00:48;;;;;;;14.65;3.00;;;7.10;99.90;;;;;;5073233;28;20373;-67
2021/03/21 15:03:21;;;;;;;22.55;3.13;;;7.10;99.90;;;;;;5073776;28;20049;-66
2021/03/21 15:06:22;;;;;;;25.98;2.97;;;7.10;99.90;;;;;;5073596;28;20093;-71
2021/03/21 15:09:07;;;;;;;30.40;3.75;;;7.30;99.90;;;;;;5066597;28;20598;-65
2021/03/21 15:15:54;;;;;;;21.10;4.22;;;7.30;99.90;;;;;;5073373;28;20512;-68
2021/03/21 15:18:28;;;;;;;22.90;3.88;;;7.30;99.90;;;;;;5068340;28;20483;-66
2021/03/21 15:24:45;;;;;;;15.27;2.75;;;7.30;99.90;;;;;;5053222;28;20032;-67
2021/03/21 15:27:17;;;;;;;22.77;3.40;;;7.40;99.90;;;;;;5063742;28;20037;-66
2021/03/21 15:29:57;;;;;;;22.73;3.75;;;7.50;99.90;;;;;;5073607;28;20064;-67
2021/03/21 15:32:29;;;;;;;24.67;3.70;;;7.40;99.90;;;;;;5073081;28;20068;-67
2021/03/21 15:35:09;;;;;;;26.35;3.90;;;7.40;99.90;;;;;;5073010;28;20473;-70
2021/03/21 15:38:02;;;;;;;18.10;3.08;;;7.40;99.90;;;;;;5049230;28;20056;-68
2021/03/21 15:44:43;;;;;;;15.45;3.28;;;7.20;99.90;;;;;;5072910;28;20035;-65
2021/03/21 15:47:15;;;;;;;28.27;3.45;;;7.30;99.90;;;;;;5072880;28;20109;-66
2021/03/21 15:49:42;;;;;;;22.17;3.50;;;7.20;99.90;;;;;;5073449;28;20388;-68
2021/03/21 15:52:11;;;;;;;13.30;3.20;;;7.20;99.90;;;;;;5035259;28;20037;-66
2021/03/21 15:54:48;;;;;;;20.90;3.15;;;7.20;99.90;;;;;;5071007;28;20060;-66
2021/03/21 16:02:19;;;;;;;18.75;2.88;;;7.20;99.90;;;;;;5074244;28;20090;-66
2021/03/21 16:04:49;;;;;;;27.98;4.03;;;7.20;99.90;;;;;;5074532;28;20041;-65
2021/03/21 16:07:23;;;;;;;13.48;2.47;;;7.10;99.90;;;;;;5076864;28;20040;-66
2021/03/21 16:09:52;;;;;;;21.23;3.47;;;7.10;99.90;;;;;;5071334;28;20121;-67
2021/03/21 16:12:24;;;;;;;19.02;2.53;;;7.10;99.90;;;;;;5072545;28;20480;-62
2021/03/21 16:14:52;;;;;;;12.43;2.85;;;7.20;99.90;;;;;;5076833;28;20120;-62
2021/03/21 16:17:26;;;;;;;25.38;4.25;;;7.00;99.90;;;;;;5076622;28;20037;-65
2021/03/21 16:19:54;;;;;;;23.75;3.40;;;7.00;99.90;;;;;;5072776;28;20483;-65
2021/03/21 16:22:21;;;;;;;20.98;4.28;;;7.00;99.90;;;;;;5024885;28;20076;-65
2021/03/21 16:24:54;;;;;;;14.80;2.95;;;7.10;99.90;;;;;;5076708;28;20051;-64
2021/03/21 16:27:25;;;;;;;16.73;3.10;;;7.00;99.90;;;;;;5058900;28;20142;-65
2021/03/21 16:37:19;;;;;;;25.88;2.97;;;6.80;99.90;;;;;;5075969;28;20036;-66
2021/03/21 16:39:52;;;;;;;18.77;2.90;;;6.80;99.90;;;;;;5076494;28;20051;-66
2021/03/21 16:42:22;;;;;;;24.30;3.05;;;6.90;99.90;;;;;;5076508;28;20047;-65
2021/03/21 16:44:54;;;;;;;24.17;3.78;;;6.80;99.90;;;;;;5076745;28;20060;-67
2021/03/21 16:47:58;;;;;;;13.82;2.70;;;6.80;99.90;;;;;;5076340;28;20048;-65
2021/03/21 16:50:34;;;;;;;21.00;3.30;;;6.80;99.90;;;;;;5054342;28;20048;-65
2021/03/21 17:05:08;;;;;;;24.95;3.42;;;6.80;99.90;;;;;;5055774;28;20574;-63
2021/03/21 17:07:52;;;;;;;29.08;4.75;;;6.70;99.90;;;;;;5043362;28;20041;-64
2021/03/21 17:10:39;;;;;;;25.52;3.00;;;6.80;99.90;;;;;;5038999;28;20053;-64
2021/03/21 17:13:06;;;;;;;24.02;2.92;;;6.60;99.90;;;;;;5055110;28;20122;-68
2021/03/21 17:20:00;;;;;;;19.35;3.08;;;6.40;99.90;;;;;;5055729;28;20054;-67
2021/03/21 17:22:34;;;;;;;29.85;3.05;;;6.60;99.90;;;;;;5051984;28;20120;-66
2021/03/21 17:25:34;;;;;;;16.73;2.58;;;6.60;99.90;;;;;;5055812;28;20124;-64
2021/03/21 17:28:15;;;;;;;12.55;2.35;;;6.50;99.90;;;;;;5039976;28;20419;-67
2021/03/21 17:34:24;;;;;;;24.65;3.25;;;6.50;99.90;;;;;;5055410;28;20051;-66
2021/03/21 17:36:55;;;;;;;25.08;2.78;;;6.50;99.90;;;;;;5053121;28;20041;-68
2021/03/21 17:40:05;;;;;;;14.00;2.58;;;6.50;99.90;;;;;;5035975;28;20044;-66
2021/03/21 17:42:33;;;;;;;20.10;2.53;;;6.50;99.90;;;;;;5055334;28;20041;-66
2021/03/21 17:45:06;;;;;;;27.45;3.60;;;6.40;99.90;;;;;;5055246;28;20051;-66
2021/03/21 17:47:37;;;;;;;8.50;2.33;;;6.40;99.90;;;;;;5055099;28;20040;-67
2021/03/21 17:50:14;;;;;;;20.85;3.95;;;6.40;99.90;;;;;;5038506;28;20056;-68
2021/03/21 17:52:46;;;;;;;21.45;3.35;;;6.40;99.90;;;;;;5054938;28;20067;-64
2021/03/21 17:55:17;;;;;;;25.88;3.22;;;6.40;99.90;;;;;;5037252;28;20041;-66
2021/03/21 17:58:07;;;;;;;24.38;4.45;;;6.50;99.90;;;;;;5072793;28;20127;-65
2021/03/21 18:05:03;;;;;;;22.73;3.03;;;6.30;99.90;;;;;;5074606;28;20395;-66
2021/03/21 18:07:43;;;;;;;21.63;3.20;;;6.30;99.90;;;;;;5074719;28;20119;-66
2021/03/21 18:10:50;;;;;;;18.35;3.10;;;6.30;99.90;;;;;;5055513;28;20048;-67
2021/03/21 18:17:33;;;;;;;15.57;3.28;;;6.20;99.90;;;;;;5074218;28;20502;-70
2021/03/21 18:20:05;;;;;;;10.50;2.53;;;6.30;99.90;;;;;;5074889;28;20056;-66
2021/03/21 18:23:09;;;;;;;13.35;2.65;;;6.30;99.90;;;;;;5053901;28;20057;-66
2021/03/21 18:25:45;;;;;;;22.77;3.30;;;6.20;99.90;;;;;;5074485;28;20036;-68
2021/03/21 18:28:15;;;;;;;16.60;2.90;;;6.20;99.90;;;;;;5059602;28;20047;-67
2021/03/21 18:42:33;;;;;;;22.52;3.10;;;6.10;99.90;;;;;;5073893;28;20167;-63
2021/03/21 18:45:16;;;;;;;12.95;2.47;;;6.10;99.90;;;;;;5074158;28;20036;-64
2021/03/21 18:47:56;;;;;;;25.20;3.23;;;6.10;99.90;;;;;;5071365;28;20043;-63
2021/03/21 18:50:46;;;;;;;26.85;4.82;;;6.10;99.90;;;;;;5069766;28;20285;-62
2021/03/21 18:57:32;;;;;;;22.38;3.47;;;6.10;99.90;;;;;;5073535;28;20102;-63
2021/03/21 19:00:09;;;;;;;24.55;4.75;;;6.10;99.90;;;;;;5056372;28;20052;-63
2021/03/21 19:02:41;;;;;;;29.23;3.50;;;6.00;99.90;;;;;;5069291;28;20045;-63
2021/03/21 19:05:16;;;;;;;18.15;3.35;;;6.00;99.90;;;;;;5054639;28;20059;-62
2021/03/21 19:07:45;;;;;;;17.42;2.70;;;5.90;99.90;;;;;;5073490;28;20048;-62
2021/03/21 19:10:37;;;;;;;20.00;3.38;;;6.00;99.90;;;;;;5055764;28;20500;-62
2021/03/21 19:13:22;;;;;;;13.30;3.00;;;5.90;99.90;;;;;;5055684;28;20181;-62
2021/03/21 19:20:05;;;;;;;14.82;2.53;;;5.90;99.90;;;;;;5073453;28;20032;-63
2021/03/21 19:22:33;;;;;;;14.80;2.58;;;5.80;99.90;;;;;;5071088;28;20071;-63
2021/03/21 19:25:07;;;;;;;15.18;2.65;;;5.80;99.90;;;;;;5055619;28;20052;-63
2021/03/21 19:27:41;;;;;;;9.02;1.90;;;5.80;99.90;;;;;;5073419;28;20048;-63
2021/03/21 19:30:09;;;;;;;18.30;2.92;;;5.80;99.90;;;;;;5073243;28;20044;-62
2021/03/21 19:32:36;;;;;;;8.27;1.60;;;5.70;99.90;;;;;;5073468;28;20051;-63
2021/03/21 19:35:09;;;;;;;17.98;2.70;;;5.70;99.90;;;;;;5073207;28;20040;-62
2021/03/21 19:41:30;;;;;;;14.10;2.10;;;5.70;99.90;;;;;;5073002;28;20466;-62
2021/03/21 19:44:12;;;;;;;13.48;3.00;;;5.60;99.90;;;;;;5071820;28;20124;-61
2021/03/21 19:50:13;;;;;;;22.20;3.40;;;5.50;99.90;;;;;;5073206;28;20059;-61
2021/03/21 19:53:21;;;;;;;17.33;2.55;;;5.40;99.90;;;;;;5055057;28;20559;-62
2021/03/21 19:55:52;;;;;;;18.60;2.40;;;5.40;99.90;;;;;;5072351;28;20395;-62
2021/03/21 19:58:23;;;;;;;21.50;4.00;;;5.40;99.90;;;;;;5043521;28;20112;-62
2021/03/21 20:00:51;;;;;;;18.92;3.13;;;5.30;99.90;;;;;;5031330;28;20124;-61
2021/03/21 20:03:23;;;;;;;16.55;2.72;;;5.30;99.90;;;;;;5053276;28;20045;-62
2021/03/21 20:05:55;;;;;;;19.10;2.78;;;5.20;99.90;;;;;;5031669;28;20503;-61
2021/03/21 20:08:24;;;;;;;25.77;3.65;;;5.30;99.90;;;;;;5014271;28;20462;-61
2021/03/21 20:18:28;;;;;;;19.98;2.50;;;5.30;99.90;;;;;;5052469;28;20506;-62
2021/03/21 20:20:57;;;;;;;24.33;3.90;;;5.20;99.90;;;;;;5053365;28;20096;-63
2021/03/21 20:23:52;;;;;;;23.90;4.07;;;5.20;99.90;;;;;;5052839;28;20037;-63
2021/03/21 20:26:28;;;;;;;11.70;2.63;;;5.20;99.90;;;;;;5036469;28;20048;-63
2021/03/21 20:33:21;;;;;;;24.33;4.68;;;5.20;99.90;;;;;;5046707;28;20071;-62
2021/03/21 20:36:07;;;;;;;16.95;2.70;;;5.10;99.90;;;;;;5047344;28;20049;-62
2021/03/21 20:38:53;;;;;;;12.10;2.65;;;5.10;99.90;;;;;;5048475;28;20072;-63
2021/03/21 20:45:51;;;;;;;9.02;1.52;;;5.10;99.90;;;;;;5052384;28;20040;-62
2021/03/21 20:48:22;;;;;;;17.67;3.25;;;5.10;99.90;;;;;;5055657;28;20045;-63
2021/03/21 20:50:52;;;;;;;12.40;2.17;;;5.10;99.90;;;;;;5055692;28;20060;-62
2021/03/21 20:53:24;;;;;;;19.33;2.65;;;5.00;99.90;;;;;;5056263;28;20147;-62
2021/03/21 20:56:06;;;;;;;23.92;4.55;;;5.10;99.90;;;;;;5056316;28;20052;-61
2021/03/21 21:02:58;;;;;;;21.80;2.88;;;5.00;99.90;;;;;;5066088;28;20044;-63
2021/03/21 21:13:37;;;;;;;22.48;3.08;;;5.00;99.90;;;;;;5075872;28;20047;-62
2021/03/21 21:16:12;;;;;;;11.13;2.28;;;5.00;99.90;;;;;;5076045;28;20085;-62
2021/03/21 21:18:50;;;;;;;23.13;3.75;;;5.00;99.90;;;;;;5075717;28;20369;-62
2021/03/21 21:25:49;;;;;;;13.93;2.03;;;5.00;99.90;;;;;;5074876;28;20452;-62
2021/03/21 21:28:28;;;;;;;21.73;2.85;;;5.00;99.90;;;;;;5071096;28;20487;-62